Time;durP1;ratioP1;P1;durP2;ratioP2;P2;SDS_P1;SDS_P2;PMS_P1;PMS_P2;Temp;Humidity;BMP_temperature;BMP_pressure;BME280_temperature;BME280_humidity;BME280_pressure;Samples;Min_cycle;Max_cycle;Signal;HPM_P1;HPM_P2
2022/08/14 00:00:21;;;;;;;1999.90;999.90;;;;;;;17.08;100.00;94986.13;5096290;28;20218;-58
2022/08/14 00:02:46;;;;;;;1999.90;999.90;;;;;;;17.09;100.00;94987.66;5096500;28;20183;-58
2022/08/14 00:05:17;;;;;;;1999.90;999.90;;;;;;;17.04;100.00;94991.78;5095892;28;20203;-58
2022/08/14 00:07:43;;;;;;;1999.90;999.90;;;;;;;16.99;100.00;94983.31;5096677;28;20164;-60
2022/08/14 00:10:11;;;;;;;1999.90;999.90;;;;;;;16.95;100.00;94977.97;5095576;28;20258;-62
2022/08/14 00:12:42;;;;;;;1999.90;999.90;;;;;;;16.91;100.00;94971.81;5096099;28;20675;-62
2022/08/14 00:15:30;;;;;;;1999.90;999.90;;;;;;;16.90;100.00;94969.50;5095901;28;20221;-63
2022/08/14 00:17:56;;;;;;;1999.90;999.90;;;;;;;16.85;100.00;94959.06;5113881;28;20180;-63
2022/08/14 00:20:26;;;;;;;1999.90;999.90;;;;;;;16.82;100.00;94968.25;5096198;28;20176;-64
2022/08/14 00:22:52;;;;;;;1999.90;999.90;;;;;;;16.79;100.00;94964.38;5096187;28;20208;-62
2022/08/14 00:25:18;;;;;;;1999.90;999.90;;;;;;;16.76;100.00;94956.28;5095671;28;20212;-60
2022/08/14 00:27:44;;;;;;;1999.90;999.90;;;;;;;16.74;100.00;94955.94;5096193;28;20274;-62
2022/08/14 00:30:11;;;;;;;1999.90;999.90;;;;;;;16.70;100.00;94947.03;5095754;28;20216;-61
2022/08/14 00:32:38;;;;;;;1999.90;999.90;;;;;;;16.67;100.00;94939.69;5095447;28;20192;-62
2022/08/14 00:35:05;;;;;;;1999.90;999.90;;;;;;;16.61;100.00;94935.97;5095495;28;20184;-62
2022/08/14 00:37:31;;;;;;;1999.90;999.90;;;;;;;16.53;100.00;94934.72;5098446;28;20179;-62
2022/08/14 00:39:57;;;;;;;1999.90;999.90;;;;;;;16.52;100.00;94933.16;5098922;28;20241;-62
2022/08/14 00:42:23;;;;;;;1999.90;999.90;;;;;;;16.46;100.00;94933.00;5098999;28;20204;-62
2022/08/14 00:44:49;;;;;;;1999.90;999.90;;;;;;;16.42;100.00;94926.84;5098920;28;20240;-76
2022/08/14 00:47:16;;;;;;;1999.90;999.90;;;;;;;16.35;100.00;94925.09;5098752;28;20180;-62
2022/08/14 00:49:42;;;;;;;1999.90;999.90;;;;;;;16.37;100.00;94919.16;5116330;28;20179;-62
2022/08/14 00:52:08;;;;;;;1999.90;999.90;;;;;;;16.30;100.00;94933.19;5099206;28;20186;-62
2022/08/14 00:54:37;;;;;;;1999.90;999.90;;;;;;;16.30;100.00;94909.16;5099222;28;20271;-62
2022/08/14 00:57:02;;;;;;;1999.90;999.90;;;;;;;16.28;100.00;94919.09;5098743;28;20194;-63
2022/08/14 00:59:28;;;;;;;1999.90;999.90;;;;;;;16.18;100.00;94909.25;5098977;28;20187;-63
2022/08/14 01:01:56;;;;;;;1999.90;999.90;;;;;;;16.09;100.00;94893.44;5098475;28;20183;-69
2022/08/14 01:04:23;;;;;;;1999.90;999.90;;;;;;;16.01;100.00;94886.66;5098637;28;20202;-66
2022/08/14 01:06:51;;;;;;;1999.90;999.90;;;;;;;16.01;100.00;94872.88;5098964;28;20184;-78
2022/08/14 01:09:22;;;;;;;1999.90;999.90;;;;;;;15.97;100.00;94872.25;5098739;28;20204;-77
2022/08/14 01:11:49;;;;;;;1999.90;999.90;;;;;;;15.94;100.00;94873.16;5099004;28;20219;-79
2022/08/14 01:14:16;;;;;;;1999.90;999.90;;;;;;;15.86;100.00;94871.88;5098946;28;20183;-79
2022/08/14 01:16:41;;;;;;;1999.90;999.90;;;;;;;15.79;100.00;94854.84;5098803;28;20180;-79
2022/08/14 01:21:51;;;;;;;1999.90;999.90;;;;;;;15.75;100.00;94854.97;5116771;28;20195;-69
2022/08/14 01:24:17;;;;;;;1999.90;999.90;;;;;;;15.74;100.00;94864.44;5098277;28;20196;-62
2022/08/14 01:26:42;;;;;;;1999.90;999.90;;;;;;;15.68;100.00;94852.47;5098432;28;20235;-61
2022/08/14 01:29:08;;;;;;;1999.90;999.90;;;;;;;15.68;100.00;94849.72;5098403;28;20184;-61
2022/08/14 01:31:42;;;;;;;1999.90;999.90;;;;;;;15.72;100.00;94847.63;5098005;28;20187;-61
2022/08/14 01:34:08;;;;;;;1999.90;999.90;;;;;;;15.73;100.00;94851.88;5115150;28;20278;-62
2022/08/14 01:36:37;;;;;;;1999.90;999.90;;;;;;;15.68;100.00;94849.72;5098157;28;20192;-62
2022/08/14 01:39:12;;;;;;;1999.90;999.90;;;;;;;15.66;100.00;94841.13;5098317;28;20203;-66
2022/08/14 01:41:38;;;;;;;1999.90;999.90;;;;;;;15.67;100.00;94825.41;5098124;28;20247;-57
2022/08/14 01:44:11;;;;;;;1999.90;999.90;;;;;;;15.64;100.00;94821.56;5098450;28;20222;-59
2022/08/14 01:46:39;;;;;;;1999.90;999.90;;;;;;;15.65;100.00;94817.59;5114961;28;20195;-58
2022/08/14 01:49:10;;;;;;;1999.90;999.90;;;;;;;15.64;100.00;94827.06;5097360;28;20168;-58
2022/08/14 01:51:38;;;;;;;1999.90;999.90;;;;;;;15.64;100.00;94810.56;5114983;28;20194;-57
2022/08/14 01:54:22;;;;;;;1999.90;999.90;;;;;;;15.63;100.00;94803.50;5098349;28;20299;-59
2022/08/14 01:56:50;;;;;;;1999.90;999.90;;;;;;;15.58;100.00;94795.03;5098698;28;20252;-62
2022/08/14 01:59:16;;;;;;;1999.90;999.90;;;;;;;15.59;100.00;94780.84;5098010;28;20245;-68
2022/08/14 02:01:42;;;;;;;1999.90;999.90;;;;;;;15.47;100.00;94784.44;5097783;28;20187;-68
2022/08/14 02:04:08;;;;;;;1999.90;999.90;;;;;;;15.43;100.00;94775.56;5116004;28;20327;-67
2022/08/14 02:06:36;;;;;;;1999.90;999.90;;;;;;;15.44;100.00;94774.31;5097735;28;20256;-68
2022/08/14 02:09:06;;;;;;;1999.90;999.90;;;;;;;15.30;100.00;94782.31;5097738;28;20224;-68
2022/08/14 02:11:33;;;;;;;1999.90;999.90;;;;;;;15.26;100.00;94779.69;5097924;28;20194;-68
2022/08/14 02:14:03;;;;;;;1999.90;999.90;;;;;;;15.27;100.00;94775.69;5097732;28;20195;-69
2022/08/14 02:16:32;;;;;;;1999.90;999.90;;;;;;;15.25;100.00;94778.16;5097655;28;20183;-58
2022/08/14 02:19:00;;;;;;;1999.90;999.90;;;;;;;15.21;100.00;94776.72;5114574;28;20244;-66
2022/08/14 02:21:31;;;;;;;1999.90;999.90;;;;;;;15.11;100.00;94777.88;5097589;28;20259;-66
2022/08/14 02:23:59;;;;;;;1999.90;999.90;;;;;;;15.02;100.00;94775.84;5097664;28;20237;-66
2022/08/14 02:26:28;;;;;;;1999.90;999.90;;;;;;;15.05;100.00;94769.44;5097469;28;20184;-66
2022/08/14 02:28:58;;;;;;;1999.90;999.90;;;;;;;15.07;100.00;94772.50;5097861;28;20188;-66
2022/08/14 02:31:28;;;;;;;1999.90;999.90;;;;;;;15.11;100.00;94773.16;5097703;28;20187;-66
2022/08/14 02:33:54;;;;;;;1999.90;999.90;;;;;;;15.12;100.00;94768.44;5097351;28;20187;-61
2022/08/14 02:36:19;;;;;;;1999.90;999.90;;;;;;;15.10;100.00;94779.88;5097502;28;20180;-64
2022/08/14 02:38:44;;;;;;;1999.90;999.90;;;;;;;15.06;100.00;94776.47;5097280;28;20187;-63
2022/08/14 02:41:12;;;;;;;1999.90;999.90;;;;;;;15.01;100.00;94779.78;5097418;28;20190;-64
2022/08/14 02:43:38;;;;;;;1999.90;999.90;;;;;;;14.97;100.00;94768.16;5097322;28;20194;-66
2022/08/14 02:46:08;;;;;;;1999.90;999.90;;;;;;;14.96;100.00;94755.63;5097399;28;20286;-63
2022/08/14 02:48:34;;;;;;;1999.90;999.90;;;;;;;14.99;100.00;94765.72;5097085;28;20204;-64
2022/08/14 02:51:02;;;;;;;1999.90;999.90;;;;;;;15.00;100.00;94750.75;5097095;28;20176;-63
2022/08/14 02:53:28;;;;;;;1999.90;999.90;;;;;;;14.91;100.00;94741.69;5097095;28;20241;-61
2022/08/14 02:55:55;;;;;;;1999.90;999.90;;;;;;;14.90;100.00;94734.66;5097372;28;20195;-58
2022/08/14 02:58:22;;;;;;;1999.90;999.90;;;;;;;14.82;100.00;94731.38;5097029;28;20215;-57
2022/08/14 03:00:48;;;;;;;1999.90;999.90;;;;;;;14.74;100.00;94727.34;5096655;28;20183;-58
2022/08/14 03:03:15;;;;;;;1999.90;999.90;;;;;;;14.65;100.00;94719.03;5096945;28;20195;-59
2022/08/14 03:05:40;;;;;;;1999.90;999.90;;;;;;;14.59;100.00;94709.81;5096579;28;20252;-58
2022/08/14 03:08:11;;;;;;;1999.90;999.90;;;;;;;14.40;100.00;94694.38;5096745;28;20267;-59
2022/08/14 03:10:38;;;;;;;1999.90;999.90;;;;;;;14.37;100.00;94680.75;5096785;28;20242;-64
2022/08/14 03:13:03;;;;;;;1999.90;999.90;;;;;;;14.31;100.00;94683.31;5096736;28;20186;-61
2022/08/14 03:15:45;;;;;;;1999.90;999.90;;;;;;;14.25;100.00;94670.59;5096759;28;20184;-61
2022/08/14 03:18:12;;;;;;;1999.90;999.90;;;;;;;14.25;100.00;94668.63;5097026;28;20183;-61
2022/08/14 03:20:37;;;;;;;1999.90;999.90;;;;;;;14.15;100.00;94655.97;5096505;28;20321;-61
2022/08/14 03:23:03;;;;;;;1999.90;999.90;;;;;;;14.18;100.00;94652.34;5096589;28;20262;-60
2022/08/14 03:25:32;;;;;;;1999.90;999.90;;;;;;;14.19;100.00;94648.38;5096696;28;20210;-61
2022/08/14 03:28:02;;;;;;;1999.90;999.90;;;;;;;14.25;100.00;94652.13;5096593;28;20179;-61
2022/08/14 03:30:29;;;;;;;1999.90;999.90;;;;;;;14.28;100.00;94656.72;5097087;28;20295;-67
2022/08/14 03:32:56;;;;;;;1999.90;999.90;;;;;;;14.27;100.00;94666.19;5096567;28;20271;-74
2022/08/14 03:35:22;;;;;;;1999.90;999.90;;;;;;;14.32;100.00;94662.09;5096359;28;20244;-78
2022/08/14 03:37:47;;;;;;;1999.90;999.90;;;;;;;14.37;100.00;94656.81;5096270;28;20184;-76
2022/08/14 03:40:12;;;;;;;1999.90;999.90;;;;;;;14.35;100.00;94661.97;5096531;28;20259;-76
2022/08/14 03:42:38;;;;;;;1999.90;999.90;;;;;;;14.31;100.00;94664.06;5096203;28;20187;-77
2022/08/14 03:45:08;;;;;;;1999.90;999.90;;;;;;;14.27;100.00;94665.44;5096307;28;20206;-76
2022/08/14 03:47:35;;;;;;;1999.90;999.90;;;;;;;14.28;100.00;94650.47;5096666;28;20240;-66
2022/08/14 03:50:01;;;;;;;1999.90;999.90;;;;;;;14.29;100.00;94657.50;5096623;28;20179;-63
2022/08/14 03:52:26;;;;;;;1999.90;999.90;;;;;;;14.22;100.00;94663.22;5096126;28;20183;-62
2022/08/14 03:54:52;;;;;;;1999.90;999.90;;;;;;;14.22;100.00;94664.00;5096159;28;20188;-62
2022/08/14 03:57:17;;;;;;;1999.90;999.90;;;;;;;14.27;100.00;94668.94;5096109;28;20199;-63
2022/08/14 03:59:43;;;;;;;1999.90;999.90;;;;;;;14.30;100.00;94670.78;5095890;28;20188;-62
2022/08/14 04:02:08;;;;;;;1999.90;999.90;;;;;;;14.32;100.00;94657.38;5096275;28;20180;-63
2022/08/14 04:04:33;;;;;;;1999.90;999.90;;;;;;;14.32;100.00;94657.38;5096055;28;20206;-63
2022/08/14 04:06:59;;;;;;;1999.90;999.90;;;;;;;14.34;100.00;94660.44;5095896;28;20190;-68
2022/08/14 04:09:25;;;;;;;1999.90;999.90;;;;;;;14.28;100.00;94661.47;5095847;28;20210;-74
2022/08/14 04:11:51;;;;;;;1999.90;999.90;;;;;;;14.26;100.00;94658.38;5098038;28;20171;-75
2022/08/14 04:14:16;;;;;;;1999.90;999.90;;;;;;;14.21;100.00;94651.47;5099659;28;20182;-70
2022/08/14 04:16:45;;;;;;;1999.90;999.90;;;;;;;14.31;100.00;94658.56;5099857;28;20287;-69
2022/08/14 04:19:10;;;;;;;1999.90;999.90;;;;;;;14.38;100.00;94661.09;5099891;28;20187;-70
2022/08/14 04:21:35;;;;;;;1999.90;999.90;;;;;;;14.42;100.00;94672.72;5099441;28;20180;-70
2022/08/14 04:24:01;;;;;;;1999.90;999.90;;;;;;;14.51;100.00;94678.31;5099809;28;20232;-61
2022/08/14 04:26:29;;;;;;;1999.90;999.90;;;;;;;14.60;100.00;94678.38;5099649;28;20253;-61
2022/08/14 04:28:55;;;;;;;1999.90;999.90;;;;;;;14.64;100.00;94690.00;5099319;28;20245;-72
2022/08/14 04:31:22;;;;;;;1999.90;999.90;;;;;;;14.68;100.00;94698.88;5099840;28;20263;-71
2022/08/14 04:33:48;;;;;;;1999.90;999.90;;;;;;;14.62;100.00;94708.16;5099980;28;20221;-69
2022/08/14 04:36:13;;;;;;;1999.90;999.90;;;;;;;14.58;100.00;94707.50;5098890;28;20184;-67
2022/08/14 04:44:07;;;;;;;1999.90;999.90;;;;;;;15.09;100.00;94704.09;5117780;28;20213;-58
2022/08/14 04:46:34;;;;;;;1999.90;999.90;;;;;;;15.21;100.00;94717.00;5099145;28;20210;-67
2022/08/14 04:49:00;;;;;;;1999.90;999.90;;;;;;;15.31;100.00;94715.06;5115841;28;20175;-72
2022/08/14 04:51:27;;;;;;;1999.90;999.90;;;;;;;15.45;100.00;94720.81;5098993;28;20589;-69
2022/08/14 04:53:54;;;;;;;1999.90;999.90;;;;;;;15.63;100.00;94731.91;5099154;28;20272;-68
2022/08/14 04:56:22;;;;;;;1999.90;999.90;;;;;;;15.98;100.00;94729.78;5099344;28;20191;-72
2022/08/14 04:58:49;;;;;;;1999.90;999.90;;;;;;;16.37;100.00;94745.50;5098842;28;20317;-69
2022/08/14 05:01:15;;;;;;;1999.90;999.90;;;;;;;16.86;100.00;94767.53;5099094;28;20188;-62
2022/08/14 05:03:41;;;;;;;1999.90;999.90;;;;;;;17.47;100.00;94781.00;5099000;28;20180;-61
2022/08/14 05:06:09;;;;;;;1999.90;999.90;;;;;;;18.19;100.00;94797.41;5116631;28;20279;-61
2022/08/14 05:08:35;;;;;;;1999.90;999.90;;;;;;;18.66;100.00;94809.38;5098929;28;20290;-62
2022/08/14 05:11:03;;;;;;;1999.90;999.90;;;;;;;19.18;100.00;94802.41;5098864;28;20365;-61
2022/08/14 05:13:30;;;;;;;1999.90;999.90;;;;;;;19.76;100.00;94810.84;5098944;28;20213;-60
2022/08/14 05:15:58;;;;;;;1999.90;999.90;;;;;;;20.18;100.00;94808.59;5098444;28;20176;-59
2022/08/14 05:18:31;;;;;;;1999.90;999.90;;;;;;;20.41;100.00;94810.50;5099075;28;20179;-75
2022/08/14 05:20:58;;;;;;;1999.90;999.90;;;;;;;20.75;100.00;94818.06;5099160;28;20180;-59
2022/08/14 05:23:33;;;;;;;1999.90;999.90;;;;;;;21.31;98.82;94825.16;5097258;28;20184;-66
2022/08/14 05:26:02;;;;;;;1999.90;999.90;;;;;;;21.42;97.26;94828.81;5098459;28;20199;-70
2022/08/14 05:28:30;;;;;;;1999.90;999.90;;;;;;;21.54;94.67;94813.81;5098337;28;20201;-68
2022/08/14 05:30:59;;;;;;;1999.90;999.90;;;;;;;22.11;90.29;94823.03;5098304;28;20279;-68
2022/08/14 05:33:27;;;;;;;1999.90;999.90;;;;;;;22.50;87.11;94828.97;5098640;28;20229;-61
2022/08/14 05:36:00;;;;;;;1999.90;999.90;;;;;;;22.67;85.24;94829.84;5098409;28;20218;-61
2022/08/14 05:38:28;;;;;;;1999.90;999.90;;;;;;;23.38;82.00;94828.78;5115589;28;20179;-62
2022/08/14 05:40:55;;;;;;;1999.90;999.90;;;;;;;23.63;80.19;94833.47;5098742;28;20293;-64
2022/08/14 05:43:21;;;;;;;1999.90;999.90;;;;;;;23.94;78.81;94824.94;5098311;28;20210;-64
2022/08/14 05:45:47;;;;;;;1999.90;999.90;;;;;;;24.27;77.72;94831.38;5097807;28;20267;-63
2022/08/14 05:48:14;;;;;;;1999.90;999.90;;;;;;;24.45;76.27;94828.09;5098145;28;20203;-63
2022/08/14 05:50:40;;;;;;;1999.90;999.90;;;;;;;24.65;75.19;94835.44;5098817;28;20253;-65
2022/08/14 05:53:06;;;;;;;1999.90;999.90;;;;;;;25.06;72.76;94839.25;5098085;28;20191;-64
2022/08/14 05:55:31;;;;;;;1999.90;999.90;;;;;;;25.32;70.15;94839.72;5097980;28;20179;-61
2022/08/14 05:58:00;;;;;;;1999.90;999.90;;;;;;;26.15;66.92;94842.91;5098044;28;20221;-68
2022/08/14 06:00:29;;;;;;;1999.90;999.90;;;;;;;26.17;66.77;94839.59;5098075;28;20195;-64
2022/08/14 06:02:57;;;;;;;1999.90;999.90;;;;;;;26.39;66.42;94834.63;5114863;28;20210;-63
2022/08/14 06:05:24;;;;;;;1999.90;999.90;;;;;;;26.71;63.69;94844.09;5097801;28;20203;-63
2022/08/14 06:07:49;;;;;;;1999.90;999.90;;;;;;;26.84;61.69;94835.06;5098398;28;20176;-62
2022/08/14 06:10:15;;;;;;;1999.90;999.90;;;;;;;27.16;59.24;94839.59;5097816;28;20264;-62
2022/08/14 06:12:41;;;;;;;1999.90;999.90;;;;;;;26.38;64.60;94849.94;5098076;28;20207;-60
2022/08/14 06:15:08;;;;;;;1999.90;999.90;;;;;;;27.32;60.22;94841.50;5097937;28;20214;-60
2022/08/14 06:17:48;;;;;;;1999.90;999.90;;;;;;;27.51;57.33;94838.75;5097357;28;20175;-53
2022/08/14 06:20:14;;;;;;;1999.90;999.90;;;;;;;27.66;57.38;94842.66;5098157;28;20211;-54
2022/08/14 06:22:42;;;;;;;1999.90;999.90;;;;;;;27.85;54.75;94837.84;5097912;28;20180;-58
2022/08/14 06:25:08;;;;;;;1999.90;999.90;;;;;;;27.96;55.02;94832.09;5114497;28;20218;-52
2022/08/14 06:27:45;;;;;;;1999.90;999.90;;;;;;;28.47;53.35;94843.44;5097492;28;20183;-54
2022/08/14 06:30:16;;;;;;;1999.90;999.90;;;;;;;28.76;51.20;94842.47;5097918;28;20197;-55
2022/08/14 06:32:42;;;;;;;1999.90;999.90;;;;;;;29.12;51.32;94838.78;5097839;28;20168;-68
2022/08/14 06:35:09;;;;;;;1999.90;999.90;;;;;;;29.29;49.15;94842.09;5096697;28;20180;-61
2022/08/14 06:37:59;;;;;;;1999.90;999.90;;;;;;;29.48;48.85;94847.59;5097665;28;20275;-62
2022/08/14 06:40:27;;;;;;;1999.90;999.90;;;;;;;29.86;47.33;94849.69;5097291;28;20191;-62
2022/08/14 06:42:57;;;;;;;1999.90;999.90;;;;;;;29.97;47.04;94843.81;5097179;28;20267;-61
2022/08/14 06:45:23;;;;;;;1999.90;999.90;;;;;;;30.49;44.01;94831.69;5115012;28;20235;-61
2022/08/14 06:47:48;;;;;;;1999.90;999.90;;;;;;;31.06;42.88;94833.41;5097488;28;20207;-61
2022/08/14 06:50:20;;;;;;;1999.90;999.90;;;;;;;30.70;44.13;94824.81;5096990;28;20190;-61
2022/08/14 06:52:46;;;;;;;1999.90;999.90;;;;;;;30.39;45.59;94825.78;5115406;28;20183;-53
2022/08/14 06:55:13;;;;;;;1999.90;999.90;;;;;;;31.33;43.48;94831.22;5097504;28;20180;-55
2022/08/14 06:57:45;;;;;;;1999.90;999.90;;;;;;;31.63;42.07;94831.41;5096950;28;20184;-56
2022/08/14 07:00:22;;;;;;;1999.90;999.90;;;;;;;31.96;41.08;94825.63;5097406;28;20194;-55
2022/08/14 07:05:45;;;;;;;1999.90;999.90;;;;;;;32.05;39.21;94821.50;5115159;28;20214;-54
2022/08/14 07:08:20;;;;;;;1999.90;999.90;;;;;;;32.48;39.15;94822.25;5097119;28;20345;-55
2022/08/14 07:10:49;;;;;;;1999.90;999.90;;;;;;;33.68;37.28;94813.88;5096988;28;20247;-70
2022/08/14 07:13:19;;;;;;;1999.90;999.90;;;;;;;33.39;35.99;94806.94;5096716;28;20184;-55
2022/08/14 07:15:47;;;;;;;1999.90;999.90;;;;;;;33.11;35.98;94815.59;5096434;28;20187;-54
2022/08/14 07:18:13;;;;;;;1999.90;999.90;;;;;;;31.89;39.10;94812.19;5096638;28;20190;-54
2022/08/14 07:20:40;;;;;;;1999.90;999.90;;;;;;;32.94;37.60;94797.66;5096571;28;20184;-55
2022/08/14 07:23:07;;;;;;;1999.90;999.90;;;;;;;33.66;35.13;94799.53;5096696;28;20183;-56
2022/08/14 07:25:32;;;;;;;1999.90;999.90;;;;;;;31.96;38.57;94800.19;5096252;28;20214;-56
2022/08/14 07:27:57;;;;;;;1999.90;999.90;;;;;;;31.87;39.15;94797.13;5096423;28;20180;-63
2022/08/14 07:30:23;;;;;;;1999.90;999.90;;;;;;;32.62;37.90;94791.72;5095909;28;20188;-58
2022/08/14 07:32:49;;;;;;;1999.90;999.90;;;;;;;33.89;36.14;94785.31;5096313;28;20210;-59
2022/08/14 07:35:14;;;;;;;1999.90;999.90;;;;;;;31.19;39.83;94785.34;5096189;28;20203;-58
2022/08/14 07:37:40;;;;;;;1999.90;999.90;;;;;;;31.82;38.49;94779.00;5096461;28;20251;-58
2022/08/14 07:40:07;;;;;;;1999.90;999.90;;;;;;;31.77;37.10;94782.72;5096026;28;20179;-57
2022/08/14 07:42:32;;;;;;;1999.90;999.90;;;;;;;33.05;36.76;94766.91;5096335;28;20258;-58
2022/08/14 07:44:59;;;;;;;1999.90;999.90;;;;;;;32.83;37.20;94767.66;5095785;28;20215;-59
2022/08/14 07:47:24;;;;;;;1999.90;999.90;;;;;;;34.34;34.27;94770.22;5095610;28;20195;-64
2022/08/14 07:50:00;;;;;;;1999.90;999.90;;;;;;;32.24;36.85;94768.25;5096692;28;20175;-59
2022/08/14 07:52:26;;;;;;;1999.90;999.90;;;;;;;31.05;39.86;94776.22;5097068;28;20191;-59
2022/08/14 07:54:53;;;;;;;1999.90;999.90;;;;;;;32.18;37.01;94764.81;5096224;28;20262;-60
2022/08/14 07:57:19;;;;;;;1999.90;999.90;;;;;;;33.13;36.10;94747.84;5096313;28;20206;-60
2022/08/14 07:59:46;;;;;;;1999.90;999.90;;;;;;;33.00;35.57;94753.69;5096195;28;20207;-59
2022/08/14 08:02:15;;;;;;;1999.90;999.90;;;;;;;33.86;34.12;94751.69;5095985;28;20219;-59
2022/08/14 08:04:43;;;;;;;1999.90;999.90;;;;;;;35.23;31.91;94751.06;5095956;28;20282;-49
2022/08/14 08:07:10;;;;;;;1999.90;999.90;;;;;;;32.80;33.83;94760.25;5096617;28;20176;-49
2022/08/14 08:09:35;;;;;;;1999.90;999.90;;;;;;;34.90;32.15;94752.47;5095897;28;20211;-49
2022/08/14 08:12:03;;;;;;;1999.90;999.90;;;;;;;33.96;32.56;94755.44;5096028;28;20186;-50
2022/08/14 08:14:30;;;;;;;1999.90;999.90;;;;;;;33.47;32.91;94756.69;5095693;28;20183;-51
2022/08/14 08:16:56;;;;;;;1999.90;999.90;;;;;;;33.06;34.67;94754.25;5095809;28;20314;-53
2022/08/14 08:19:22;;;;;;;1999.90;999.90;;;;;;;35.31;31.23;94743.25;5096243;28;20180;-52
2022/08/14 08:21:53;;;;;;;1999.90;999.90;;;;;;;34.40;32.75;94753.72;5095666;28;20175;-54
2022/08/14 08:24:19;;;;;;;1999.90;999.90;;;;;;;35.02;32.13;94748.59;5095953;28;20219;-57
2022/08/14 08:26:44;;;;;;;1999.90;999.90;;;;;;;34.79;31.93;94750.06;5096066;28;20215;-57
2022/08/14 08:29:18;;;;;;;1999.90;999.90;;;;;;;33.91;32.24;94759.22;5095991;28;20264;-58
2022/08/14 08:31:49;;;;;;;1999.90;999.90;;;;;;;34.64;31.65;94750.19;5095755;28;20190;-59
2022/08/14 08:34:15;;;;;;;1999.90;999.90;;;;;;;33.38;33.04;94765.78;5095310;28;20176;-59
2022/08/14 08:36:42;;;;;;;1999.90;999.90;;;;;;;33.75;32.68;94776.25;5095717;28;20186;-58
2022/08/14 08:39:07;;;;;;;1999.90;999.90;;;;;;;32.63;33.95;94771.38;5095596;28;20199;-57
2022/08/14 08:41:39;;;;;;;1999.90;999.90;;;;;;;32.60;33.95;94778.19;5095262;28;20268;-59
2022/08/14 08:44:05;;;;;;;1999.90;999.90;;;;;;;33.05;33.42;94755.59;5095725;28;20199;-63
2022/08/14 08:46:30;;;;;;;1999.90;999.90;;;;;;;32.61;33.87;94765.53;5095083;28;20195;-65
2022/08/14 08:48:58;;;;;;;1999.90;999.90;;;;;;;32.17;35.21;94758.44;5095311;28;20211;-62
2022/08/14 08:51:32;;;;;;;1999.90;999.90;;;;;;;33.36;33.93;94754.25;5095272;28;20240;-62
2022/08/14 08:54:13;;;;;;;1999.90;999.90;;;;;;;32.85;33.92;94741.63;5095774;28;20180;-65
2022/08/14 08:56:46;;;;;;;1999.90;999.90;;;;;;;32.73;34.42;94755.34;5095886;28;20207;-64
2022/08/14 08:59:17;;;;;;;1999.90;999.90;;;;;;;32.34;34.76;94755.09;5099445;28;20290;-65
2022/08/14 09:01:59;;;;;;;1999.90;999.90;;;;;;;32.69;34.88;94742.88;5099450;28;20184;-62
2022/08/14 09:04:32;;;;;;;1999.90;999.90;;;;;;;32.13;35.36;94743.91;5099046;28;20231;-65
2022/08/14 09:06:58;;;;;;;1999.90;999.90;;;;;;;32.60;34.79;94754.78;5098645;28;20207;-63
2022/08/14 09:09:28;;;;;;;1999.90;999.90;;;;;;;33.25;34.11;94729.13;5098911;28;20290;-63
2022/08/14 09:11:55;;;;;;;1999.90;999.90;;;;;;;32.54;34.63;94746.47;5098554;28;20184;-66
2022/08/14 09:14:26;;;;;;;1999.90;999.90;;;;;;;33.98;32.29;94744.28;5098582;28;20180;-66
2022/08/14 09:16:52;;;;;;;1999.90;999.90;;;;;;;34.49;31.65;94738.94;5115070;28;20191;-66
2022/08/14 09:19:18;;;;;;;1999.90;999.90;;;;;;;33.53;33.36;94737.41;5098458;28;20235;-62
2022/08/14 09:21:45;;;;;;;1999.90;999.90;;;;;;;33.34;34.07;94722.16;5098532;28;20317;-52
2022/08/14 09:24:11;;;;;;;1999.90;999.90;;;;;;;33.78;33.19;94729.00;5098292;28;20292;-50
2022/08/14 09:26:38;;;;;;;1999.90;999.90;;;;;;;32.68;34.63;94716.69;5098292;28;20203;-52
2022/08/14 09:29:05;;;;;;;1999.90;999.90;;;;;;;33.13;34.62;94728.00;5098330;28;20271;-50
2022/08/14 09:31:32;;;;;;;1999.90;999.90;;;;;;;33.21;34.08;94728.75;5098250;28;20263;-51
2022/08/14 09:34:19;;;;;;;1999.90;999.90;;;;;;;32.32;34.84;94738.69;5098295;28;20175;-52
2022/08/14 09:37:02;;;;;;;1999.90;999.90;;;;;;;31.60;36.84;94728.78;5098556;28;20271;-65
2022/08/14 09:39:30;;;;;;;1999.90;999.90;;;;;;;32.47;34.93;94724.59;5099031;28;20168;-58
2022/08/14 09:42:27;;;;;;;1999.90;999.90;;;;;;;32.60;34.84;94738.56;5098470;28;20184;-61
2022/08/14 09:45:06;;;;;;;1999.90;999.90;;;;;;;32.82;35.34;94720.06;5098178;28;20218;-58
2022/08/14 09:47:55;;;;;;;1999.90;999.90;;;;;;;31.97;35.39;94722.53;5098466;28;20191;-57
2022/08/14 09:50:22;;;;;;;1999.90;999.90;;;;;;;32.17;35.33;94732.97;5098708;28;20172;-61
2022/08/14 09:53:01;;;;;;;1999.90;999.90;;;;;;;33.32;34.32;94736.13;5097968;28;20252;-58
2022/08/14 09:55:32;;;;;;;1999.90;999.90;;;;;;;33.56;33.58;94730.59;5098554;28;20244;-58
2022/08/14 09:58:15;;;;;;;1999.90;999.90;;;;;;;31.55;35.98;94738.16;5098621;28;20209;-59
2022/08/14 10:00:59;;;;;;;1999.90;999.90;;;;;;;32.65;35.18;94729.13;5114876;28;20179;-59
2022/08/14 10:03:33;;;;;;;1999.90;999.90;;;;;;;31.74;35.76;94727.34;5098328;28;20236;-58
2022/08/14 10:06:05;;;;;;;1999.90;999.90;;;;;;;33.34;31.97;94720.09;5098085;28;20205;-59
2022/08/14 10:08:45;;;;;;;1999.90;999.90;;;;;;;33.19;31.40;94714.41;5096778;28;20180;-58
2022/08/14 10:11:18;;;;;;;1999.90;999.90;;;;;;;34.18;30.21;94715.63;5098490;28;20325;-59
2022/08/14 10:13:45;;;;;;;1999.90;999.90;;;;;;;33.43;31.72;94721.56;5097500;28;20212;-60
2022/08/14 10:16:11;;;;;;;1999.90;999.90;;;;;;;33.41;30.54;94716.47;5097754;28;20179;-57
2022/08/14 10:18:36;;;;;;;1999.90;999.90;;;;;;;32.83;31.89;94711.06;5097551;28;20204;-59
2022/08/14 10:21:05;;;;;;;1999.90;999.90;;;;;;;33.11;31.51;94707.25;5097551;28;20179;-58
2022/08/14 10:23:48;;;;;;;1999.90;999.90;;;;;;;34.30;30.10;94704.59;5097315;28;20188;-59
2022/08/14 10:26:18;;;;;;;1999.90;999.90;;;;;;;33.61;30.60;94709.78;5097343;28;20203;-58
2022/08/14 10:28:47;;;;;;;1999.90;999.90;;;;;;;32.73;33.05;94709.31;5097450;28;20183;-58
2022/08/14 10:31:22;;;;;;;1999.90;999.90;;;;;;;34.11;30.41;94698.66;5097882;28;20271;-61
2022/08/14 10:34:05;;;;;;;1999.90;999.90;;;;;;;33.91;30.23;94691.19;5098132;28;20183;-59
2022/08/14 10:36:40;;;;;;;1999.90;999.90;;;;;;;33.29;31.48;94694.75;5097729;28;20183;-64
2022/08/14 10:39:18;;;;;;;1999.90;999.90;;;;;;;34.14;30.40;94684.06;5115197;28;20183;-62
2022/08/14 10:41:44;;;;;;;1999.90;999.90;;;;;;;33.20;30.78;94684.78;5097191;28;20179;-61
2022/08/14 10:44:17;;;;;;;1999.90;999.90;;;;;;;32.77;32.03;94679.31;5097221;28;20183;-64
2022/08/14 10:46:52;;;;;;;1999.90;999.90;;;;;;;32.88;31.95;94687.44;5097671;28;20180;-63
2022/08/14 10:49:24;;;;;;;1999.90;999.90;;;;;;;33.64;31.32;94677.50;5097754;28;20171;-62
2022/08/14 10:52:09;;;;;;;1999.90;999.90;;;;;;;34.12;29.34;94672.53;5114698;28;20176;-48
2022/08/14 10:54:45;;;;;;;1999.90;999.90;;;;;;;34.58;29.19;94664.50;5096848;28;20274;-63
2022/08/14 10:57:22;;;;;;;1999.90;999.90;;;;;;;32.40;31.03;94668.75;5097008;28;20183;-63
2022/08/14 10:59:49;;;;;;;1999.90;999.90;;;;;;;33.02;30.44;94665.34;5097146;28;20176;-63
2022/08/14 11:02:24;;;;;;;1999.90;999.90;;;;;;;33.70;29.07;94661.03;5096871;28;20188;-62
2022/08/14 11:05:17;;;;;;;1999.90;999.90;;;;;;;34.51;28.44;94645.44;5096777;28;20206;-62
2022/08/14 11:07:54;;;;;;;1999.90;999.90;;;;;;;33.81;29.29;94642.84;5094240;28;20196;-60